Time;durP1;ratioP1;P1;durP2;ratioP2;P2;SDS_P1;SDS_P2;PMS_P1;PMS_P2;Temp;Humidity;BMP_temperature;BMP_pressure;BME280_temperature;BME280_humidity;BME280_pressure;Samples;Min_cycle;Max_cycle;Signal;HPM_P1;HPM_P2
2023/04/08 00:00:21;;;;;;;14.30;11.80;;;10.60;43.40;;;;;;5011781;28;20477;-49
2023/04/08 00:02:47;;;;;;;15.90;10.67;;;10.70;43.30;;;;;;5011786;28;20581;-50
2023/04/08 00:05:13;;;;;;;13.00;10.87;;;10.60;43.50;;;;;;5012041;28;20246;-49
2023/04/08 00:07:38;;;;;;;14.27;10.83;;;10.60;43.90;;;;;;5012064;28;20245;-50
2023/04/08 00:10:05;;;;;;;18.80;12.87;;;10.60;43.60;;;;;;5011981;28;20199;-50
2023/04/08 00:12:32;;;;;;;15.30;12.95;;;10.60;43.60;;;;;;5011731;28;20170;-50
2023/04/08 00:14:57;;;;;;;17.23;13.05;;;10.60;43.70;;;;;;5011893;28;20171;-50
2023/04/08 00:17:23;;;;;;;19.90;14.30;;;10.50;44.10;;;;;;5011842;28;20178;-50
2023/04/08 00:19:49;;;;;;;17.77;13.40;;;10.50;44.00;;;;;;5012838;28;20167;-50
2023/04/08 00:22:15;;;;;;;19.23;14.00;;;10.50;44.30;;;;;;5015386;28;20206;-50
2023/04/08 00:24:40;;;;;;;18.37;13.07;;;10.50;43.90;;;;;;5015577;28;20416;-50
2023/04/08 00:27:06;;;;;;;16.53;13.60;;;10.50;43.90;;;;;;5015483;28;20182;-50
2023/04/08 00:29:32;;;;;;;20.67;15.40;;;10.50;44.70;;;;;;5015404;28;20578;-50
2023/04/08 00:31:57;;;;;;;21.00;15.40;;;10.50;44.60;;;;;;5015060;28;20202;-50
2023/04/08 00:34:23;;;;;;;19.03;13.40;;;10.40;44.90;;;;;;5015409;28;20163;-50
2023/04/08 00:36:49;;;;;;;21.97;15.07;;;10.30;45.00;;;;;;5015326;28;20163;-50
2023/04/08 00:39:15;;;;;;;17.90;14.03;;;10.30;45.20;;;;;;5015385;28;20253;-50
2023/04/08 00:41:40;;;;;;;19.23;14.23;;;10.40;44.70;;;;;;5015049;28;20209;-50
2023/04/08 00:44:06;;;;;;;21.20;13.67;;;10.40;44.60;;;;;;5015022;28;20178;-50
2023/04/08 00:46:39;;;;;;;20.53;13.17;;;10.50;44.70;;;;;;5015108;28;20608;-50
2023/04/08 00:49:06;;;;;;;18.02;12.63;;;10.50;44.60;;;;;;5015025;28;20214;-50
2023/04/08 00:51:32;;;;;;;21.20;15.18;;;10.60;44.30;;;;;;5014957;28;20195;-50
2023/04/08 00:53:59;;;;;;;21.42;13.48;;;10.50;44.70;;;;;;5014909;28;20178;-50
2023/04/08 00:56:25;;;;;;;22.83;13.73;;;10.50;44.60;;;;;;5014794;28;20176;-50
2023/04/08 00:58:54;;;;;;;20.98;12.68;;;10.50;44.60;;;;;;5014955;28;20186;-50
2023/04/08 01:02:17;;;;;;;21.60;14.82;;;10.60;44.50;;;;;;5014802;28;20602;-50
2023/04/08 01:04:56;;;;;;;22.48;13.88;;;10.60;44.90;;;;;;4934820;29;20212;-50
2023/04/08 01:07:26;;;;;;;22.02;15.10;;;10.60;44.70;;;;;;4935055;29;20612;-50
2023/04/08 01:10:22;;;;;;;21.38;13.85;;;10.60;44.50;;;;;;4934912;29;20189;-51
2023/04/08 01:13:11;;;;;;;19.45;14.45;;;10.60;44.60;;;;;;4932694;29;20188;-51
2023/04/08 01:15:40;;;;;;;15.50;12.50;;;10.60;44.50;;;;;;4934638;29;20662;-50
2023/04/08 01:18:12;;;;;;;22.48;14.15;;;10.60;44.60;;;;;;4934706;29;20189;-50
2023/04/08 01:20:40;;;;;;;18.05;12.60;;;10.60;44.70;;;;;;4934527;29;20213;-50
2023/04/08 01:23:18;;;;;;;22.30;13.85;;;10.60;45.40;;;;;;4934410;29;20170;-51
2023/04/08 01:25:48;;;;;;;20.48;14.23;;;10.60;45.00;;;;;;4934672;29;20184;-50
2023/04/08 01:28:18;;;;;;;22.02;13.35;;;10.60;45.10;;;;;;4934536;29;20638;-51
2023/04/08 01:30:45;;;;;;;18.30;12.40;;;10.60;45.60;;;;;;4934274;29;20205;-50
2023/04/08 01:33:12;;;;;;;22.90;13.95;;;10.60;45.50;;;;;;4934364;29;20181;-50
2023/04/08 01:35:38;;;;;;;19.80;13.50;;;10.60;45.40;;;;;;4980177;28;20709;-51
2023/04/08 01:38:07;;;;;;;20.63;14.18;;;10.60;45.40;;;;;;5014337;28;20601;-50
2023/04/08 01:40:36;;;;;;;20.63;13.10;;;10.60;45.30;;;;;;5014120;28;20209;-50
2023/04/08 01:43:03;;;;;;;18.58;12.88;;;10.60;45.30;;;;;;5013821;28;20175;-51
2023/04/08 01:45:30;;;;;;;17.42;11.63;;;10.70;45.40;;;;;;5014155;28;20170;-50
2023/04/08 01:47:57;;;;;;;20.98;13.32;;;10.70;46.10;;;;;;5013918;28;20185;-50
2023/04/08 01:50:24;;;;;;;17.40;11.25;;;10.60;45.40;;;;;;5013886;28;20284;-50
2023/04/08 01:52:52;;;;;;;16.77;11.23;;;10.60;46.00;;;;;;5012449;28;20526;-50
2023/04/08 01:55:19;;;;;;;16.92;11.63;;;10.60;45.80;;;;;;5013872;28;20182;-50
2023/04/08 01:57:50;;;;;;;15.25;10.63;;;10.60;45.60;;;;;;5013821;28;20178;-51
2023/04/08 02:00:21;;;;;;;17.27;12.75;;;10.60;45.70;;;;;;5013508;28;20298;-50
2023/04/08 02:02:48;;;;;;;15.95;11.90;;;10.70;45.60;;;;;;5013588;28;20174;-50
2023/04/08 02:05:14;;;;;;;15.30;10.65;;;10.70;45.70;;;;;;5013570;28;20248;-50
2023/04/08 02:07:40;;;;;;;16.77;10.75;;;10.70;45.50;;;;;;5013759;28;20321;-50
2023/04/08 02:10:06;;;;;;;15.67;11.70;;;10.70;45.50;;;;;;5013675;28;20214;-50
2023/04/08 02:12:35;;;;;;;16.60;11.18;;;10.80;45.70;;;;;;5013411;28;20840;-50
2023/04/08 02:15:00;;;;;;;14.15;10.10;;;10.80;45.40;;;;;;5013512;28;20175;-50
2023/04/08 02:17:55;;;;;;;16.53;10.50;;;10.80;45.50;;;;;;5013379;28;20726;-50
2023/04/08 02:20:36;;;;;;;12.20;8.75;;;10.80;45.50;;;;;;5009163;28;20832;-50
2023/04/08 02:23:18;;;;;;;13.70;9.02;;;10.90;45.50;;;;;;5013262;28;20253;-50
2023/04/08 02:25:45;;;;;;;15.73;10.68;;;10.90;45.50;;;;;;5013376;28;20163;-50
2023/04/08 02:28:11;;;;;;;12.15;8.02;;;10.80;45.60;;;;;;5013136;28;20228;-50
2023/04/08 02:30:47;;;;;;;12.07;8.40;;;10.80;45.80;;;;;;5013160;28;20617;-50
2023/04/08 02:33:14;;;;;;;9.52;6.90;;;10.80;45.70;;;;;;5013079;28;20738;-50
2023/04/08 02:35:40;;;;;;;12.45;7.60;;;10.80;46.10;;;;;;5013217;28;20254;-50
2023/04/08 02:38:07;;;;;;;13.38;7.80;;;10.80;45.90;;;;;;5013200;28;20170;-50
2023/04/08 02:40:34;;;;;;;11.43;8.23;;;10.80;46.40;;;;;;5012840;28;20267;-50
2023/04/08 02:43:00;;;;;;;10.57;7.65;;;10.80;46.10;;;;;;5012322;28;20162;-50
2023/04/08 02:45:30;;;;;;;14.00;8.38;;;10.80;46.00;;;;;;5012899;28;20175;-50
2023/04/08 02:47:56;;;;;;;11.23;6.97;;;10.90;46.00;;;;;;5013029;28;20201;-50
2023/04/08 02:50:22;;;;;;;11.40;8.70;;;10.90;45.80;;;;;;5012838;28;20249;-50
2023/04/08 02:52:48;;;;;;;12.37;8.90;;;10.90;45.90;;;;;;5012686;28;20174;-50
2023/04/08 02:55:13;;;;;;;12.93;7.13;;;10.90;45.80;;;;;;5012670;28;20437;-50
2023/04/08 02:57:41;;;;;;;9.70;6.73;;;11.00;46.00;;;;;;5012750;28;20192;-50
2023/04/08 03:00:07;;;;;;;9.05;7.43;;;11.00;45.80;;;;;;5012678;28;20248;-50
2023/04/08 03:02:33;;;;;;;10.65;7.90;;;11.00;45.70;;;;;;5012403;28;20570;-50
2023/04/08 03:04:59;;;;;;;8.80;7.03;;;11.00;45.70;;;;;;5012723;28;20223;-50
2023/04/08 03:07:25;;;;;;;9.60;7.30;;;11.00;45.70;;;;;;5012639;28;20526;-49
2023/04/08 03:09:51;;;;;;;10.33;7.30;;;11.10;45.70;;;;;;5012552;28;20429;-50
2023/04/08 03:12:16;;;;;;;8.05;6.10;;;11.10;45.90;;;;;;5012368;28;20547;-50
2023/04/08 03:14:42;;;;;;;9.13;6.67;;;11.00;45.80;;;;;;5012577;28;20542;-50
2023/04/08 03:17:08;;;;;;;13.00;6.67;;;11.00;45.70;;;;;;5012548;28;20181;-51
2023/04/08 03:19:33;;;;;;;8.40;6.47;;;11.00;46.20;;;;;;5012457;28;20178;-50
2023/04/08 03:21:59;;;;;;;9.77;6.93;;;11.00;45.90;;;;;;5011991;28;20264;-50
2023/04/08 03:24:25;;;;;;;10.25;6.78;;;11.00;45.90;;;;;;5011178;28;20634;-50
2023/04/08 03:26:51;;;;;;;9.23;6.50;;;11.10;45.90;;;;;;5012479;28;20178;-50
2023/04/08 03:29:17;;;;;;;10.70;7.33;;;11.00;46.30;;;;;;5039651;22;20249;-47
2023/04/08 03:31:42;;;;;;;7.10;5.67;;;11.10;46.20;;;;;;5031545;28;20205;-47
2023/04/08 03:34:08;;;;;;;9.07;6.27;;;11.10;46.00;;;;;;5031830;28;20174;-46
2023/04/08 03:36:34;;;;;;;9.93;5.53;;;11.10;45.90;;;;;;5032051;28;20251;-47
2023/04/08 03:39:00;;;;;;;9.33;5.33;;;11.10;46.10;;;;;;5032198;28;20203;-46
2023/04/08 03:41:25;;;;;;;8.23;5.85;;;11.10;46.00;;;;;;5032174;28;20235;-46
2023/04/08 03:43:51;;;;;;;7.23;5.23;;;11.10;45.80;;;;;;5031855;28;20203;-46
2023/04/08 03:46:17;;;;;;;8.03;7.00;;;11.20;45.80;;;;;;5031870;28;20169;-47
2023/04/08 03:48:43;;;;;;;7.30;5.53;;;11.20;45.80;;;;;;5031940;28;20277;-46
2023/04/08 03:51:08;;;;;;;10.13;5.90;;;11.20;45.80;;;;;;5032049;28;20645;-47
2023/04/08 03:53:34;;;;;;;7.13;5.90;;;11.10;46.00;;;;;;5031697;28;20633;-47
2023/04/08 03:56:01;;;;;;;7.07;4.77;;;11.10;46.60;;;;;;5035122;28;20184;-47
2023/04/08 03:58:27;;;;;;;6.32;4.90;;;11.10;45.90;;;;;;5035690;28;20237;-46
2023/04/08 04:00:53;;;;;;;7.37;4.80;;;11.10;45.90;;;;;;5035683;28;20267;-46
2023/04/08 04:03:19;;;;;;;6.17;4.60;;;11.10;45.90;;;;;;5035764;28;20205;-46
2023/04/08 04:05:45;;;;;;;7.78;4.63;;;11.10;46.20;;;;;;5035883;28;20594;-47
2023/04/08 04:08:11;;;;;;;6.53;4.70;;;11.10;46.30;;;;;;5035576;28;20273;-46
2023/04/08 04:10:36;;;;;;;7.60;4.80;;;11.10;46.20;;;;;;5035565;28;20182;-50
2023/04/08 04:13:02;;;;;;;8.03;5.23;;;11.00;46.40;;;;;;5035576;28;20443;-46
2023/04/08 04:15:28;;;;;;;6.70;5.07;;;11.00;46.30;;;;;;5035508;28;20200;-47
2023/04/08 04:17:53;;;;;;;8.70;5.50;;;11.10;46.30;;;;;;5035281;28;20615;-47
2023/04/08 04:20:20;;;;;;;7.10;4.30;;;11.10;46.60;;;;;;5035371;28;20244;-47
2023/04/08 04:22:46;;;;;;;9.77;4.82;;;11.00;46.30;;;;;;5035195;28;20192;-47
2023/04/08 04:25:12;;;;;;;8.60;5.40;;;11.10;46.40;;;;;;5035268;28;20646;-48
2023/04/08 04:27:37;;;;;;;6.50;5.33;;;11.10;46.40;;;;;;5035065;28;20216;-49
2023/04/08 04:30:04;;;;;;;6.43;4.50;;;11.10;46.40;;;;;;5035138;28;20166;-49
2023/04/08 04:32:29;;;;;;;9.30;5.80;;;11.10;46.30;;;;;;5034961;28;20645;-49
2023/04/08 04:34:55;;;;;;;7.73;5.83;;;11.10;46.30;;;;;;5035079;28;20184;-49
2023/04/08 04:37:21;;;;;;;9.20;5.90;;;11.10;46.30;;;;;;5035086;28;20181;-46
2023/04/08 04:39:47;;;;;;;8.60;5.50;;;11.10;46.50;;;;;;5034987;28;20194;-48
2023/04/08 04:42:12;;;;;;;8.20;4.97;;;11.10;46.40;;;;;;5034615;28;20509;-48
2023/04/08 04:44:38;;;;;;;8.97;6.37;;;11.10;46.60;;;;;;5034951;28;20436;-48
2023/04/08 04:47:05;;;;;;;10.97;5.80;;;11.10;46.50;;;;;;5034762;28;20182;-48
2023/04/08 04:49:30;;;;;;;10.15;5.60;;;11.10;46.60;;;;;;5034713;28;20206;-48
2023/04/08 04:51:56;;;;;;;9.50;5.55;;;11.10;46.50;;;;;;5034834;28;20182;-48
2023/04/08 04:54:22;;;;;;;8.00;5.53;;;11.10;46.70;;;;;;5034732;28;20515;-49
2023/04/08 04:56:48;;;;;;;9.43;6.80;;;11.10;46.60;;;;;;5034909;28;20220;-48
2023/04/08 04:59:13;;;;;;;12.80;5.70;;;11.10;46.60;;;;;;5034647;28;20205;-48
2023/04/08 05:01:39;;;;;;;7.30;5.73;;;11.10;46.70;;;;;;5034490;28;20732;-48
2023/04/08 05:04:06;;;;;;;9.68;5.55;;;11.10;46.60;;;;;;5034703;28;20236;-47
2023/04/08 05:06:32;;;;;;;8.85;5.95;;;11.10;46.60;;;;;;5034102;28;20204;-48
2023/04/08 05:08:58;;;;;;;9.18;6.55;;;11.10;46.70;;;;;;5034467;28;20569;-49
2023/04/08 05:11:24;;;;;;;8.60;5.80;;;11.10;46.80;;;;;;5034400;28;20170;-48
2023/04/08 05:13:49;;;;;;;8.07;6.30;;;11.10;46.80;;;;;;5034160;28;20177;-48
2023/04/08 05:16:15;;;;;;;8.13;5.27;;;11.10;46.70;;;;;;5034306;28;20966;-48
2023/04/08 05:18:41;;;;;;;7.30;6.00;;;11.10;47.00;;;;;;5034333;28;20190;-48
2023/04/08 05:21:07;;;;;;;8.57;6.47;;;11.20;46.80;;;;;;5034215;28;20463;-48
2023/04/08 05:23:34;;;;;;;9.20;6.57;;;11.10;46.80;;;;;;5034316;28;20170;-48
2023/04/08 05:26:00;;;;;;;7.43;5.70;;;11.20;46.70;;;;;;5034201;28;20248;-48
2023/04/08 05:28:26;;;;;;;8.55;6.15;;;11.20;46.70;;;;;;5033939;28;20359;-48
2023/04/08 05:30:53;;;;;;;9.07;5.60;;;11.20;46.80;;;;;;5034088;28;20728;-48
2023/04/08 05:33:19;;;;;;;7.22;6.00;;;11.20;47.10;;;;;;5034095;28;20182;-48
2023/04/08 05:35:45;;;;;;;7.80;5.35;;;11.20;46.80;;;;;;5034127;28;20586;-47
2023/04/08 05:38:11;;;;;;;12.60;6.55;;;11.20;47.00;;;;;;5033845;28;20202;-48
2023/04/08 05:40:37;;;;;;;10.17;6.87;;;11.20;47.10;;;;;;5033824;28;20201;-48
2023/04/08 05:43:03;;;;;;;8.03;5.63;;;11.20;46.90;;;;;;5033842;28;20541;-48
2023/04/08 05:45:29;;;;;;;8.50;6.13;;;11.30;47.10;;;;;;5033799;28;20691;-48
2023/04/08 05:47:55;;;;;;;10.88;7.25;;;11.30;47.10;;;;;;5033721;28;20425;-48
2023/04/08 05:50:21;;;;;;;10.00;7.03;;;11.30;47.10;;;;;;5033710;28;20251;-48
2023/04/08 05:52:46;;;;;;;9.97;7.50;;;11.30;47.00;;;;;;5033485;28;20401;-48
2023/04/08 05:55:13;;;;;;;10.10;7.20;;;11.40;47.10;;;;;;5033707;28;20163;-48
2023/04/08 05:57:39;;;;;;;9.30;7.63;;;11.40;47.10;;;;;;5033423;28;20170;-48
2023/04/08 06:00:07;;;;;;;10.25;6.95;;;11.40;47.10;;;;;;5033364;28;20231;-48
2023/04/08 06:02:34;;;;;;;10.00;7.00;;;11.40;47.10;;;;;;5031967;28;20201;-48
2023/04/08 06:04:59;;;;;;;8.98;6.75;;;11.40;47.10;;;;;;5033385;28;20580;-48
2023/04/08 06:07:25;;;;;;;10.07;6.93;;;11.50;47.30;;;;;;5033431;28;20174;-48
2023/04/08 06:09:51;;;;;;;9.40;7.90;;;11.50;47.60;;;;;;5033203;28;20216;-48
2023/04/08 06:12:17;;;;;;;10.73;7.70;;;11.50;47.50;;;;;;5033043;28;20219;-48
2023/04/08 06:14:42;;;;;;;11.70;7.70;;;11.50;47.40;;;;;;5033301;28;20239;-48
2023/04/08 06:17:08;;;;;;;13.30;7.87;;;11.60;47.70;;;;;;5032464;28;20553;-48
2023/04/08 06:19:34;;;;;;;11.90;9.83;;;11.50;47.70;;;;;;5033054;28;20193;-49
2023/04/08 06:22:00;;;;;;;9.70;7.70;;;11.50;47.70;;;;;;5032927;28;20209;-48
2023/04/08 06:24:26;;;;;;;11.83;9.00;;;11.60;47.80;;;;;;5032936;28;20912;-48
2023/04/08 06:26:53;;;;;;;13.30;10.73;;;11.60;47.80;;;;;;5032922;28;20183;-48
2023/04/08 06:29:20;;;;;;;12.10;9.40;;;11.60;47.70;;;;;;5032715;28;20292;-48
2023/04/08 06:31:45;;;;;;;13.27;10.63;;;11.60;47.90;;;;;;5033068;28;20182;-46
2023/04/08 06:34:11;;;;;;;13.23;10.30;;;11.60;48.10;;;;;;5033045;28;20185;-48
2023/04/08 06:36:37;;;;;;;15.20;11.90;;;11.70;48.30;;;;;;5032860;28;20558;-49
2023/04/08 06:39:03;;;;;;;17.48;11.80;;;11.70;48.20;;;;;;5032860;28;20266;-48
2023/04/08 06:41:29;;;;;;;21.83;12.90;;;11.70;48.30;;;;;;5032501;28;20661;-48
2023/04/08 06:43:55;;;;;;;18.10;12.27;;;11.80;48.10;;;;;;5032605;28;20623;-48
2023/04/08 06:46:21;;;;;;;17.67;11.57;;;11.80;48.20;;;;;;5032595;28;20186;-48
2023/04/08 06:48:47;;;;;;;20.53;13.00;;;11.90;48.00;;;;;;5032555;28;20432;-48
2023/04/08 06:51:12;;;;;;;18.93;11.63;;;12.00;47.90;;;;;;5032541;28;20261;-48
2023/04/08 06:53:38;;;;;;;18.97;13.50;;;12.00;48.00;;;;;;5032346;28;20201;-48
2023/04/08 06:56:04;;;;;;;20.97;13.97;;;12.00;47.80;;;;;;5032401;28;20257;-48
2023/04/08 06:58:29;;;;;;;21.90;14.80;;;12.00;47.70;;;;;;5032420;28;20196;-48
2023/04/08 07:00:55;;;;;;;17.87;12.23;;;12.00;47.70;;;;;;5032360;28;20201;-48
2023/04/08 07:03:22;;;;;;;20.57;14.27;;;12.10;47.70;;;;;;5032447;28;20177;-48
2023/04/08 07:05:48;;;;;;;23.52;15.20;;;12.10;47.60;;;;;;5032301;28;20765;-48
2023/04/08 07:08:13;;;;;;;21.13;14.23;;;12.10;47.60;;;;;;5032118;28;20194;-48
2023/04/08 07:10:40;;;;;;;20.33;14.27;;;12.10;47.60;;;;;;5032234;28;20202;-48
2023/04/08 07:13:06;;;;;;;20.27;13.55;;;12.10;47.50;;;;;;5032199;28;20436;-48
2023/04/08 07:15:32;;;;;;;20.93;14.70;;;12.10;47.40;;;;;;5032534;28;20205;-49
2023/04/08 07:17:58;;;;;;;17.70;13.20;;;12.20;47.80;;;;;;5032147;28;20637;-48
2023/04/08 07:20:24;;;;;;;19.73;13.10;;;12.20;47.50;;;;;;5032126;28;20220;-48
2023/04/08 07:22:51;;;;;;;18.15;13.02;;;12.20;47.00;;;;;;5031940;28;20177;-48
2023/04/08 07:25:17;;;;;;;22.08;14.55;;;12.20;47.30;;;;;;5032039;28;20170;-48
2023/04/08 07:27:43;;;;;;;23.13;14.68;;;12.30;47.60;;;;;;5032073;28;20239;-48
2023/04/08 07:30:09;;;;;;;17.57;13.50;;;12.30;47.60;;;;;;5031868;28;20565;-48
2023/04/08 07:32:35;;;;;;;22.15;14.50;;;12.40;47.60;;;;;;5031838;28;20193;-48
2023/04/08 07:35:01;;;;;;;19.70;14.57;;;12.50;47.60;;;;;;5032018;28;20165;-48
2023/04/08 07:37:27;;;;;;;18.03;13.93;;;12.60;47.40;;;;;;5031925;28;20235;-49
2023/04/08 07:39:53;;;;;;;17.45;13.10;;;12.60;47.30;;;;;;5031753;28;20188;-48
2023/04/08 07:42:18;;;;;;;17.67;11.07;;;12.70;47.40;;;;;;5031681;28;20288;-48
2023/04/08 07:44:45;;;;;;;11.40;7.70;;;12.80;47.50;;;;;;5031900;28;20173;-48
2023/04/08 07:47:11;;;;;;;11.23;8.70;;;12.80;46.70;;;;;;5032102;28;20181;-48
2023/04/08 07:49:37;;;;;;;9.95;8.80;;;12.80;46.30;;;;;;5031840;28;20202;-48
2023/04/08 07:52:04;;;;;;;9.57;7.10;;;12.80;46.10;;;;;;5031612;28;20256;-49
2023/04/08 07:54:33;;;;;;;9.10;7.00;;;12.70;46.10;;;;;;5031751;28;20178;-48
2023/04/08 07:56:59;;;;;;;11.18;8.25;;;12.70;45.60;;;;;;5031773;28;20247;-48
2023/04/08 07:59:24;;;;;;;10.37;7.03;;;12.70;45.30;;;;;;5031855;28;20225;-48
2023/04/08 08:01:50;;;;;;;10.10;6.90;;;12.70;45.30;;;;;;5031400;28;20475;-48
2023/04/08 08:04:16;;;;;;;9.50;7.50;;;12.80;45.30;;;;;;5031771;28;20416;-48
2023/04/08 08:06:42;;;;;;;9.10;5.95;;;12.80;45.60;;;;;;5031807;28;20416;-48
2023/04/08 08:09:08;;;;;;;7.43;6.23;;;12.90;45.60;;;;;;5031533;28;20182;-48
2023/04/08 08:11:34;;;;;;;10.07;7.10;;;12.90;45.40;;;;;;5031603;28;20466;-49
2023/04/08 08:14:00;;;;;;;7.30;6.37;;;13.00;45.10;;;;;;5031388;28;20775;-48
2023/04/08 08:16:29;;;;;;;9.80;7.10;;;13.10;45.00;;;;;;5031808;28;20420;-48
2023/04/08 08:18:55;;;;;;;6.72;6.00;;;13.10;45.20;;;;;;5031479;28;20437;-49
2023/04/08 08:21:21;;;;;;;9.33;6.30;;;13.20;44.60;;;;;;5031591;28;20212;-48
2023/04/08 08:23:47;;;;;;;7.00;6.20;;;13.20;44.50;;;;;;5031418;28;20503;-48
2023/04/08 08:26:12;;;;;;;7.00;5.63;;;13.30;44.70;;;;;;5031756;28;20178;-49
2023/04/08 08:28:39;;;;;;;8.37;6.10;;;13.40;44.70;;;;;;5031247;28;20790;-48
2023/04/08 08:31:05;;;;;;;7.47;5.85;;;13.50;44.10;;;;;;5031235;28;20563;-48
2023/04/08 08:33:31;;;;;;;6.07;5.45;;;13.50;43.70;;;;;;5031164;28;20178;-48
2023/04/08 08:35:57;;;;;;;8.45;6.20;;;13.50;43.60;;;;;;5031264;28;20227;-48
2023/04/08 08:38:24;;;;;;;7.43;6.20;;;13.60;43.50;;;;;;5031200;28;20292;-48
2023/04/08 08:40:55;;;;;;;6.60;5.80;;;13.50;42.70;;;;;;5032343;28;20531;-48
2023/04/08 08:43:21;;;;;;;7.28;5.68;;;13.50;41.80;;;;;;5034853;28;20301;-48
2023/04/08 08:45:47;;;;;;;8.45;6.50;;;13.50;42.20;;;;;;5034935;28;20173;-48
2023/04/08 08:48:13;;;;;;;10.50;6.67;;;13.50;42.00;;;;;;5034784;28;20661;-46
2023/04/08 08:50:39;;;;;;;8.55;6.82;;;13.50;42.60;;;;;;5034656;28;20679;-48
2023/04/08 08:53:05;;;;;;;9.20;7.20;;;13.60;42.20;;;;;;5034614;28;20272;-48
2023/04/08 08:55:34;;;;;;;9.90;7.27;;;13.60;41.30;;;;;;5034796;28;20208;-48
2023/04/08 08:58:01;;;;;;;9.00;6.95;;;13.50;41.70;;;;;;5034558;28;20200;-49
2023/04/08 09:00:34;;;;;;;8.32;7.15;;;13.60;42.10;;;;;;5034570;28;20672;-48
2023/04/08 09:03:29;;;;;;;11.68;7.85;;;13.60;42.10;;;;;;5034601;28;20194;-48
2023/04/08 09:05:57;;;;;;;11.00;7.63;;;13.70;42.10;;;;;;5021778;28;20182;-48
2023/04/08 09:08:34;;;;;;;11.18;7.70;;;13.60;41.90;;;;;;5034433;28;20190;-48
2023/04/08 09:11:26;;;;;;;12.75;8.63;;;13.70;42.10;;;;;;5034485;28;20169;-48
2023/04/08 09:13:51;;;;;;;8.60;6.68;;;13.70;41.90;;;;;;5031303;28;20182;-48
2023/04/08 09:16:18;;;;;;;10.67;8.70;;;13.70;41.70;;;;;;5034327;28;20576;-48
2023/04/08 09:18:47;;;;;;;10.35;8.15;;;13.70;41.70;;;;;;5034225;28;20190;-48
2023/04/08 09:21:14;;;;;;;11.65;9.07;;;13.70;41.60;;;;;;5034133;28;20201;-49
2023/04/08 09:23:48;;;;;;;16.80;11.02;;;13.70;41.70;;;;;;5034294;28;20224;-48
2023/04/08 09:26:21;;;;;;;10.65;9.55;;;13.80;41.70;;;;;;5034100;28;20173;-49
2023/04/08 09:29:00;;;;;;;11.57;10.38;;;13.80;41.40;;;;;;5033901;28;20241;-49
2023/04/08 09:31:40;;;;;;;16.60;14.13;;;13.90;42.30;;;;;;5034266;28;20193;-49
2023/04/08 09:34:25;;;;;;;16.17;12.88;;;13.80;41.10;;;;;;5033885;28;20619;-48
2023/04/08 09:36:51;;;;;;;14.52;13.07;;;13.90;41.00;;;;;;5033954;28;20265;-49
2023/04/08 09:39:17;;;;;;;14.85;11.13;;;13.90;41.10;;;;;;5033853;28;20255;-49
2023/04/08 09:41:46;;;;;;;28.40;25.60;;;13.90;41.60;;;;;;5033956;28;20198;-49
2023/04/08 09:44:15;;;;;;;12.73;10.68;;;14.00;41.50;;;;;;5033531;28;20892;-48
2023/04/08 09:46:50;;;;;;;14.13;11.27;;;14.00;41.60;;;;;;5033976;28;20177;-48
2023/04/08 09:49:27;;;;;;;13.98;10.50;;;14.20;41.30;;;;;;5033515;28;20228;-49
2023/04/08 09:52:19;;;;;;;12.18;8.73;;;14.30;41.50;;;;;;5033453;28;20191;-49
2023/04/08 09:55:07;;;;;;;13.70;10.00;;;14.30;41.20;;;;;;5033940;28;20189;-47
2023/04/08 09:57:40;;;;;;;14.18;9.30;;;14.40;41.10;;;;;;5033422;28;20173;-49
2023/04/08 10:00:11;;;;;;;14.93;11.02;;;14.40;40.00;;;;;;5033486;28;20178;-48
2023/04/08 10:03:12;;;;;;;11.60;9.40;;;14.30;40.20;;;;;;5033341;28;20217;-49
2023/04/08 10:05:40;;;;;;;11.00;9.15;;;14.40;40.30;;;;;;5030310;28;20182;-48
2023/04/08 10:08:06;;;;;;;13.68;10.95;;;14.30;40.60;;;;;;5033153;28;20194;-49
2023/04/08 10:10:38;;;;;;;14.07;10.65;;;14.30;40.60;;;;;;5033272;28;20182;-49
2023/04/08 10:13:05;;;;;;;12.35;9.95;;;14.30;40.20;;;;;;5033100;28;20549;-49
2023/04/08 10:15:36;;;;;;;15.45;9.43;;;14.30;39.60;;;;;;5033146;28;20184;-49
2023/04/08 10:18:02;;;;;;;12.05;8.73;;;14.30;39.50;;;;;;5033088;28;20186;-48
2023/04/08 10:20:33;;;;;;;13.37;9.60;;;14.20;39.50;;;;;;5033213;28;20182;-49
2023/04/08 10:23:03;;;;;;;12.95;9.40;;;14.20;39.90;;;;;;5032910;28;20174;-48
2023/04/08 10:25:40;;;;;;;13.73;11.05;;;14.20;39.80;;;;;;5032997;28;20253;-48
2023/04/08 10:28:16;;;;;;;14.13;9.65;;;14.30;40.20;;;;;;5032730;28;20206;-48
2023/04/08 10:30:49;;;;;;;13.80;8.98;;;14.40;39.50;;;;;;5032856;28;20195;-49
2023/04/08 10:33:24;;;;;;;13.95;9.20;;;14.40;39.20;;;;;;5032657;28;20249;-48
2023/04/08 10:35:54;;;;;;;13.52;9.23;;;14.40;38.90;;;;;;5032971;28;20173;-49
2023/04/08 10:38:20;;;;;;;16.30;10.48;;;14.40;38.60;;;;;;5032742;28;20190;-48
2023/04/08 10:40:47;;;;;;;15.63;9.93;;;14.40;38.20;;;;;;5032849;28;20216;-49
2023/04/08 10:43:14;;;;;;;12.75;9.50;;;14.30;38.40;;;;;;5032359;28;20739;-49
2023/04/08 10:45:41;;;;;;;11.93;8.80;;;14.30;37.70;;;;;;5032936;28;20186;-49
2023/04/08 10:48:16;;;;;;;13.60;9.02;;;14.30;38.60;;;;;;5032703;28;20229;-49
2023/04/08 10:50:44;;;;;;;12.30;9.05;;;14.30;38.20;;;;;;5032552;28;20173;-49
2023/04/08 10:53:10;;;;;;;12.38;9.30;;;14.30;38.00;;;;;;5032414;28;20205;-49
2023/04/08 10:55:36;;;;;;;10.13;8.05;;;14.30;37.90;;;;;;5032469;28;20181;-49
2023/04/08 10:58:06;;;;;;;12.63;8.82;;;14.30;38.10;;;;;;5032661;28;20228;-48
2023/04/08 11:00:37;;;;;;;10.52;8.85;;;14.30;38.30;;;;;;5032333;28;20181;-49
2023/04/08 11:03:08;;;;;;;12.23;8.48;;;14.40;38.20;;;;;;5031810;28;20166;-48
2023/04/08 11:05:37;;;;;;;10.02;8.20;;;14.40;37.90;;;;;;5032343;28;20170;-49
2023/04/08 11:08:06;;;;;;;10.63;8.40;;;14.30;38.10;;;;;;5032113;28;20793;-49
2023/04/08 11:10:40;;;;;;;14.05;10.10;;;14.40;38.20;;;;;;5032450;28;20185;-49
2023/04/08 11:13:08;;;;;;;13.95;11.18;;;14.20;37.60;;;;;;5032153;28;20173;-49
2023/04/08 11:15:35;;;;;;;13.93;10.48;;;14.20;37.90;;;;;;5032586;28;20177;-48
2023/04/08 11:18:02;;;;;;;14.75;10.70;;;14.10;38.10;;;;;;5032531;28;20194;-49
2023/04/08 11:20:28;;;;;;;13.85;11.48;;;14.10;38.00;;;;;;5032294;28;20192;-49
2023/04/08 11:22:54;;;;;;;17.03;13.30;;;14.00;38.20;;;;;;5032391;28;20170;-49
2023/04/08 11:25:20;;;;;;;19.83;12.20;;;14.00;38.30;;;;;;5032472;28;20174;-49
2023/04/08 11:27:47;;;;;;;16.42;12.57;;;14.00;38.40;;;;;;5032428;28;20174;-49
2023/04/08 11:30:13;;;;;;;15.77;14.02;;;14.00;38.60;;;;;;5032391;28;20167;-49
2023/04/08 11:32:39;;;;;;;18.07;13.60;;;13.90;38.80;;;;;;5032068;28;20174;-48
2023/04/08 11:35:05;;;;;;;20.27;14.00;;;13.90;39.10;;;;;;5032414;28;20182;-49
2023/04/08 11:37:39;;;;;;;20.20;15.70;;;13.90;39.30;;;;;;5032193;28;20178;-49
2023/04/08 11:40:10;;;;;;;19.85;16.02;;;13.90;39.40;;;;;;5032489;28;20408;-49
2023/04/08 11:42:36;;;;;;;18.08;14.88;;;13.90;39.20;;;;;;5032131;28;20693;-49
2023/04/08 11:45:10;;;;;;;21.02;16.10;;;13.90;39.40;;;;;;5032398;28;20596;-49
2023/04/08 11:47:36;;;;;;;18.10;13.90;;;14.00;39.20;;;;;;5032127;28;20162;-49
2023/04/08 11:50:02;;;;;;;19.25;14.52;;;14.00;39.10;;;;;;5032581;28;20202;-49
2023/04/08 11:52:48;;;;;;;18.10;13.50;;;14.10;39.30;;;;;;5032048;28;20582;-49
2023/04/08 11:55:27;;;;;;;19.92;15.23;;;14.20;39.30;;;;;;5032323;28;20412;-49
2023/04/08 11:57:54;;;;;;;19.88;13.27;;;14.30;39.40;;;;;;5032128;28;20201;-49
2023/04/08 12:00:21;;;;;;;15.30;13.02;;;14.40;39.20;;;;;;5032291;28;20178;-49
2023/04/08 12:02:47;;;;;;;20.55;16.02;;;14.50;39.10;;;;;;5031958;28;20182;-49
2023/04/08 12:05:16;;;;;;;17.97;14.77;;;14.50;39.00;;;;;;5032421;28;20174;-49
2023/04/08 12:07:42;;;;;;;24.45;15.68;;;14.50;39.20;;;;;;5032344;28;20408;-49
2023/04/08 12:10:11;;;;;;;17.25;15.45;;;14.60;38.90;;;;;;5032347;28;20189;-49
2023/04/08 12:12:38;;;;;;;19.60;15.43;;;14.60;38.50;;;;;;5031928;28;20185;-50
2023/04/08 12:15:04;;;;;;;18.45;15.25;;;14.60;38.40;;;;;;5032236;28;20274;-47
2023/04/08 12:17:30;;;;;;;20.83;15.02;;;14.60;38.10;;;;;;5035816;28;20654;-50
2023/04/08 12:19:56;;;;;;;23.58;16.88;;;14.60;38.00;;;;;;5035840;28;20182;-50
2023/04/08 12:22:22;;;;;;;20.13;15.13;;;14.50;37.90;;;;;;5035574;28;20215;-47
2023/04/08 12:24:48;;;;;;;21.55;16.10;;;14.30;38.10;;;;;;5036113;28;20193;-50
2023/04/08 12:27:13;;;;;;;23.90;16.40;;;14.10;38.60;;;;;;5035562;28;20178;-50
2023/04/08 12:29:39;;;;;;;23.83;18.87;;;14.10;39.20;;;;;;5035682;28;20206;-47
2023/04/08 12:32:05;;;;;;;23.60;16.90;;;14.20;39.30;;;;;;5035567;28;20550;-47
2023/04/08 12:34:31;;;;;;;24.50;19.90;;;14.10;39.00;;;;;;5035729;28;20630;-49
2023/04/08 12:36:58;;;;;;;22.80;17.27;;;14.10;39.20;;;;;;5035804;28;20408;-49
2023/04/08 12:39:24;;;;;;;28.60;21.23;;;14.00;39.20;;;;;;5035491;28;20642;-47